Terminal Aerodrome Forecast
Issued by NWS

Home | Current Version | Previous Version | Text Only | Print | Product List | Glossary On
Versions: 1 2 3 4 5 6 7 8 9 10 11 12 13 14 15 16 17 18 19
223
FTUS43 KJKL 210538
TAFSME
TAF
KSME 210538Z 2106/2206 VRB03KT P6SM FEW250
     FM211600 VRB04KT P6SM FEW050 SCT250=

USA.gov is the U.S. government's official web portal to all federal, state and local government web resources and services.